| time (UTC) | temp F | wind direction | speed MPH | gust MPH | rain 1hr in | rain 24hr in | rain mn in | humidity % | barometer mb |
| 20260508190052 | 65 | 50 | 3.0 | 8.0 | 0.00 | 0.00 | 0.00 | 28 | 1007.0 |
| 20260508184551 | 65 | 56 | 2.0 | 8.0 | 0.00 | 0.00 | 0.00 | 29 | 1007.0 |
| 20260508183048 | 65 | 60 | 1.0 | 7.0 | 0.00 | 0.00 | 0.00 | 30 | 1007.0 |
| 20260508181546 | 65 | 38 | 3.0 | 5.0 | 0.00 | 0.00 | 0.00 | 30 | 1007.0 |
| 20260508180043 | 64 | 316 | 2.0 | 7.0 | 0.00 | 0.00 | 0.00 | 31 | 1007.2 |
| 20260508174544 | 63 | 31 | 2.0 | 7.0 | 0.00 | 0.00 | 0.00 | 33 | 1006.9 |
| 20260508173038 | 63 | 56 | 2.0 | 9.0 | 0.00 | 0.00 | 0.00 | 33 | 1006.9 |
| 20260508171537 | 63 | 311 | 3.0 | 6.0 | 0.00 | 0.00 | 0.00 | 33 | 1006.8 |
| 20260508170035 | 63 | 143 | 2.0 | 7.0 | 0.00 | 0.00 | 0.00 | 33 | 1006.9 |
| 20260508164533 | 63 | 39 | 2.0 | 7.0 | 0.00 | 0.00 | 0.00 | 33 | 1006.9 |
| 20260508163034 | 62 | 107 | 3.0 | 7.0 | 0.00 | 0.00 | 0.00 | 33 | 1006.7 |
| 20260508161526 | 61 | 316 | 3.0 | 8.0 | 0.00 | 0.00 | 0.00 | 36 | 1006.6 |
| 20260508160025 | 60 | 355 | 4.0 | 9.0 | 0.00 | 0.00 | 0.00 | 39 | 1006.6 |
| 20260508154520 | 59 | 73 | 4.0 | 8.0 | 0.00 | 0.00 | 0.00 | 42 | 1006.5 |
| 20260508153017 | 58 | 60 | 3.0 | 5.0 | 0.00 | 0.00 | 0.00 | 43 | 1006.4 |
| 20260508151513 | 57 | 35 | 1.0 | 6.0 | 0.00 | 0.00 | 0.00 | 45 | 1006.3 |
| 20260508150033 | 56 | 54 | 2.0 | 6.0 | 0.00 | 0.00 | 0.00 | 46 | 1006.2 |
| 20260508144507 | 55 | 51 | 2.0 | 6.0 | 0.00 | 0.00 | 0.00 | 47 | 1006.0 |
| 20260508143007 | 54 | 35 | 1.0 | 5.0 | 0.00 | 0.00 | 0.00 | 49 | 1006.0 |
| 20260508141606 | 52 | 103 | 2.0 | 5.0 | 0.00 | 0.00 | 0.00 | 51 | 1005.9 |
| 20260508140107 | 52 | 92 | 0.0 | 3.0 | 0.00 | 0.00 | 0.00 | 52 | 1005.7 |
| 20260508134556 | 51 | 30 | 1.0 | 3.0 | 0.00 | 0.00 | 0.00 | 52 | 1005.7 |
| 20260508133106 | 50 | 37 | 0.0 | 1.0 | 0.00 | 0.00 | 0.00 | 57 | 1005.5 |
| 20260508131600 | 49 | 48 | 0.0 | 1.0 | 0.00 | 0.00 | 0.00 | 60 | 1005.5 |
| 20260508130058 | 48 | 37 | 0.0 | 2.0 | 0.00 | 0.00 | 0.00 | 60 | 1005.5 |
| 20260508124551 | 45 | 39 | 0.0 | 3.0 | 0.00 | 0.00 | 0.00 | 64 | 1005.6 |
| 20260508123050 | 44 | 31 | 0.0 | 2.0 | 0.00 | 0.00 | 0.00 | 67 | 1005.1 |
| 20260508121550 | 43 | 51 | 0.0 | 0.0 | 0.00 | 0.00 | 0.00 | 67 | 1004.7 |
| 20260508120049 | 43 | 52 | 0.0 | 0.0 | 0.00 | 0.00 | 0.00 | 67 | 1004.7 |
| 20260508114546 | 43 | 52 | 0.0 | 0.0 | 0.00 | 0.00 | 0.00 | 66 | 1004.6 |
| 20260508113043 | 44 | 52 | 0.0 | 0.0 | 0.00 | 0.00 | 0.00 | 65 | 1004.7 |
| 20260508111544 | 45 | 52 | 0.0 | 0.0 | 0.00 | 0.00 | 0.00 | 66 | 1004.7 |
| 20260508110041 | 44 | 52 | 0.0 | 0.0 | 0.00 | 0.00 | 0.00 | 67 | 1004.7 |
| 20260508104540 | 45 | 52 | 0.0 | 0.0 | 0.00 | 0.00 | 0.00 | 66 | 1004.8 |
| 20260508103044 | 45 | 52 | 0.0 | 1.0 | 0.00 | 0.00 | 0.00 | 65 | 1004.8 |
| 20260508101543 | 46 | 52 | 0.0 | 0.0 | 0.00 | 0.00 | 0.00 | 61 | 1004.8 |
| 20260508100037 | 47 | 44 | 0.0 | 1.0 | 0.00 | 0.00 | 0.00 | 58 | 1005.1 |
| 20260508094534 | 47 | 88 | 0.0 | 0.0 | 0.00 | 0.00 | 0.00 | 58 | 1005.5 |
| 20260508093036 | 47 | 88 | 0.0 | 0.0 | 0.00 | 0.00 | 0.00 | 57 | 1005.1 |
| 20260508091533 | 47 | 88 | 0.0 | 0.0 | 0.00 | 0.00 | 0.00 | 57 | 1005.1 |
| 20260508090036 | 46 | 88 | 0.0 | 0.0 | 0.00 | 0.00 | 0.00 | 59 | 1005.2 |
| 20260508084530 | 45 | 88 | 0.0 | 0.0 | 0.00 | 0.00 | 0.00 | 60 | 1005.2 |
| 20260508083029 | 45 | 88 | 0.0 | 0.0 | 0.00 | 0.00 | 0.00 | 60 | 1005.1 |
| 20260508081528 | 45 | 88 | 0.0 | 0.0 | 0.00 | 0.00 | 0.00 | 59 | 1005.0 |
| 20260508080044 | 46 | 88 | 0.0 | 0.0 | 0.00 | 0.00 | 0.00 | 58 | 1005.0 |
| 20260508074523 | 47 | 88 | 0.0 | 0.0 | 0.00 | 0.00 | 0.00 | 57 | 1005.1 |
| 20260508073020 | 47 | 88 | 0.0 | 0.0 | 0.00 | 0.00 | 0.00 | 56 | 1005.1 |
| 20260508071517 | 49 | 88 | 0.0 | 0.0 | 0.00 | 0.00 | 0.00 | 54 | 1005.1 |
| 20260508070020 | 50 | 88 | 0.0 | 0.0 | 0.00 | 0.00 | 0.00 | 52 | 1005.1 |
| 20260508064527 | 51 | 88 | 0.0 | 0.0 | 0.00 | 0.00 | 0.00 | 51 | 1005.1 |
| 20260508063007 | 52 | 88 | 0.0 | 0.0 | 0.00 | 0.00 | 0.00 | 49 | 1005.1 |
| 20260508061506 | 51 | 88 | 0.0 | 0.0 | 0.00 | 0.00 | 0.00 | 50 | 1005.4 |
| 20260508060004 | 52 | 88 | 0.0 | 0.0 | 0.00 | 0.00 | 0.00 | 48 | 1005.2 |
| 20260508054503 | 52 | 88 | 0.0 | 0.0 | 0.00 | 0.00 | 0.00 | 47 | 1005.3 |
| 20260508053002 | 54 | 88 | 0.0 | 0.0 | 0.00 | 0.00 | 0.00 | 45 | 1005.3 |
| 20260508051502 | 55 | 88 | 0.0 | 0.0 | 0.00 | 0.00 | 0.00 | 43 | 1005.2 |
| 20260508050002 | 55 | 88 | 0.0 | 0.0 | 0.00 | 0.00 | 0.00 | 43 | 1005.2 |
| 20260508044501 | 57 | 88 | 0.0 | 0.0 | 0.00 | 0.00 | 0.00 | 40 | 1005.0 |
| 20260508043108 | 57 | 88 | 0.0 | 0.0 | 0.00 | 0.00 | 0.00 | 40 | 1005.0 |
| 20260508041604 | 58 | 88 | 0.0 | 0.0 | 0.00 | 0.00 | 0.00 | 38 | 1004.9 |
| 20260508040112 | 60 | 88 | 0.0 | 0.0 | 0.00 | 0.00 | 0.00 | 35 | 1004.9 |
| 20260508034559 | 61 | 88 | 0.0 | 0.0 | 0.00 | 0.00 | 0.00 | 34 | 1004.9 |
| 20260508033059 | 63 | 88 | 0.0 | 1.0 | 0.00 | 0.00 | 0.00 | 32 | 1004.9 |
| 20260508031559 | 64 | 44 | 0.0 | 1.0 | 0.00 | 0.00 | 0.00 | 31 | 1004.9 |
| 20260508030058 | 65 | 37 | 0.0 | 4.0 | 0.00 | 0.00 | 0.00 | 30 | 1004.6 |
| 20260508024557 | 66 | 69 | 0.0 | 3.0 | 0.00 | 0.00 | 0.00 | 29 | 1004.5 |
| 20260508023056 | 67 | 39 | 0.0 | 5.0 | 0.00 | 0.00 | 0.00 | 29 | 1004.3 |
| 20260508021556 | 68 | 70 | 1.0 | 4.0 | 0.00 | 0.00 | 0.00 | 28 | 1004.3 |
| 20260508020058 | 68 | 61 | 1.0 | 5.0 | 0.00 | 0.00 | 0.00 | 28 | 1004.3 |
| 20260508014554 | 69 | 27 | 1.0 | 10.0 | 0.00 | 0.00 | 0.00 | 28 | 1004.3 |
| 20260508013054 | 69 | 70 | 2.0 | 5.0 | 0.00 | 0.00 | 0.00 | 28 | 1004.3 |
| 20260508011553 | 69 | 63 | 2.0 | 6.0 | 0.00 | 0.00 | 0.00 | 28 | 1004.2 |
| 20260508010053 | 69 | 34 | 1.0 | 5.0 | 0.00 | 0.00 | 0.00 | 28 | 1004.3 |
| 20260508004554 | 70 | 34 | 1.0 | 5.0 | 0.00 | 0.00 | 0.00 | 28 | 1004.2 |
| 20260508003053 | 69 | 38 | 0.0 | 5.0 | 0.00 | 0.00 | 0.00 | 29 | 1004.3 |
| 20260508001551 | 71 | 51 | 4.0 | 7.0 | 0.00 | 0.00 | 0.00 | 27 | 1004.4 |
| 20260508000057 | 71 | 300 | 2.0 | 8.0 | 0.00 | 0.00 | 0.00 | 28 | 1004.2 |
| 20260507234555 | 72 | 179 | 1.0 | 8.0 | 0.00 | 0.00 | 0.00 | 28 | 1004.2 |
| 20260507233109 | 72 | 150 | 1.0 | 5.0 | 0.00 | 0.00 | 0.00 | 28 | 1004.2 |
| 20260507231547 | 71 | 27 | 1.0 | 7.0 | 0.00 | 0.00 | 0.00 | 29 | 1004.2 |
| 20260507230048 | 71 | 313 | 3.0 | 7.0 | 0.00 | 0.00 | 0.00 | 29 | 1004.3 |
| 20260507224542 | 71 | 297 | 2.0 | 8.0 | 0.00 | 0.00 | 0.00 | 30 | 1004.3 |
| 20260507223054 | 71 | 31 | 2.0 | 9.0 | 0.00 | 0.00 | 0.00 | 29 | 1004.4 |
| 20260507221542 | 71 | 359 | 4.0 | 9.0 | 0.00 | 0.00 | 0.00 | 29 | 1004.5 |
| 20260507220040 | 71 | 59 | 3.0 | 7.0 | 0.00 | 0.00 | 0.00 | 29 | 1004.6 |
| 20260507214536 | 71 | 194 | 1.0 | 9.0 | 0.00 | 0.00 | 0.00 | 29 | 1004.7 |
| 20260507213035 | 70 | 63 | 2.0 | 7.0 | 0.00 | 0.00 | 0.00 | 30 | 1004.9 |
| 20260507211541 | 72 | 36 | 3.0 | 11.0 | 0.00 | 0.00 | 0.00 | 28 | 1005.0 |
| 20260507210033 | 71 | 40 | 2.0 | 9.0 | 0.00 | 0.00 | 0.00 | 29 | 1005.1 |
| 20260507204531 | 70 | 291 | 2.0 | 8.0 | 0.00 | 0.00 | 0.00 | 29 | 1005.4 |
| 20260507203027 | 71 | 27 | 2.0 | 7.0 | 0.00 | 0.00 | 0.00 | 29 | 1005.4 |
| 20260507201526 | 71 | 327 | 3.0 | 9.0 | 0.00 | 0.00 | 0.00 | 29 | 1005.4 |
| 20260507200025 | 71 | 330 | 4.0 | 10.0 | 0.00 | 0.00 | 0.00 | 29 | 1005.4 |
| 20260507194533 | 70 | 21 | 2.0 | 7.0 | 0.00 | 0.00 | 0.00 | 30 | 1005.4 |
| 20260507193021 | 70 | 307 | 3.0 | 7.0 | 0.00 | 0.00 | 0.00 | 29 | 1005.5 |
| 20260507191520 | 69 | 40 | 3.0 | 8.0 | 0.00 | 0.00 | 0.00 | 30 | 1005.5 |